Terminal Aerodrome Forecast
Issued by NWS

Home | Current Version | Previous Version | Text Only | Print | Product List | Glossary On
Versions: 1 2 3 4 5 6 7 8 9 10 11 12 13 14 15 16 17 18 19 20
000
FTUS42 KTBW 061722
TAFPGD
TAF
KPGD 061722Z 0618/0718 22018G28KT P6SM SCT015 BKN070
      TEMPO 0619/0622 VRB20G30KT 2SM +TSRA BKN020CB
     FM062200 25011KT P6SM SCT015 BKN028
     FM070100 27005KT P6SM SCT015 BKN025
     FM070600 32004KT P6SM SCT020 SCT250=

USA.gov is the U.S. government's official web portal to all federal, state and local government web resources and services.